Topeka, KS (66611)

03:13 PM CDT die 01o September, anno 2015 (GMT -0500)
South Central Topeka | | Change Station
CLOSE
Current Station
Personal Weather Stations
Location: Topeka, KS
Elevation: 946 ft
Nearby Weather Stations

Elev 946 ft 39.03 °N, 95.71 °W | Updated 7 seconds ago

Serena
Serena
91.5 °F
Feels Like 97 °F
N
2.3
Ventus Variabilis Ventus from Inter Austrum et Eurum
Gusts 3.0 mph

Hodie
High -- | Low -- °F
--% Chance of Precip.
Yesterday
High -- | Low -- °F
Precip. -- in
6:51 AM 7:53 PM
Waning Gibbous, 86% visible
Pressio 29.95 in
Visibilitas 10.0 milia passuum
Clouds Serena
Index Caloris 97 °F
Frigus in quo Ros apparet 70 °F
Umor 49%
Rainfall 0.00 in
Snow Depth Not available.
UV 8 out of 12
Pollen 11.20 out of 12
Air Quality Not available.
Flu Activity Not available.
METAR KFOE 011953Z 18011KT 10SM HZ CLR 33/19 A2999 RMK AO2 SLP141 T03280194
Pressio 29.95 in
Visibilitas 10.0 milia passuum
Clouds Serena
Index Caloris 97 °F
Frigus in quo Ros apparet 70 °F
Umor 49%
Rainfall 0.00 in
Snow Depth Not available.
UV 8 out of 12
Pollen 11.20 out of 12
Air Quality Not available.
Flu Activity Not available.
METAR KFOE 011953Z 18011KT 10SM HZ CLR 33/19 A2999 RMK AO2 SLP141 T03280194

10-Day Weather Forecast

×

Almanac

Astronomy

Sep. 01, 2015 Rise Set
Actual Time
Civil Twilight
Nautical Twilight
Astronomical Twilight
Moon
Length Of Visible Light
Length of Day
Tomorrow will be .
, % of the Moon is Illuminated

Today's Extremes

State Highs State Lows

Community

WunderPhotos

Upload Photos

1,851,605 photos uploaded!

WunderBlogs® & News

Nearby

Air Quality

  Air Quality AQ Index Pollutant
Not available.

Snow Depth

Station Depth Elevation

Earthquake Activity

City Distance Mag. Time & Date
Minimum magnitude displayed is 2.5.

Coastal Water Temperatures

Locus Calor

Stations

Nearby Weather Stations

Station Location Temp Frigus Venti Frigus in quo Ros apparet Umor Ventus Precip. Elev Renovata Type